Bomar Pluto — 9HRH9 — position and weather

sailwx.info

Track history (hours):
 
Tides and Currents Weather Stations Pressure Air Temp Water Temp Dewpoint Dewpoint Depression Visibility Wind Speed Wind Dir Waves Ship Positions

Bomar Pluto

Last reported at 2017-Nov-19 04:57 UTC. Time now 2017-Nov-22 13:14 UTC.
Position N 43°24' E 004°55'.

Length 108 m; draft 6 m.

Type: Ship. MMSI: 249403000.

Date/timePositionNaut miles runAvg speedWind from/ knotsBaromVisibWave heightAir tempDewpointWater temp
2017-Nov-19 04:57N 43°24' E 004°55'3 6.9
2017-Nov-19 04:30N 43°24' E 004°60'0 0.0
2017-Nov-19 04:00N 43°24' E 004°60'0 0.0
2017-Nov-19 03:29N 43°24' E 004°60'0 0.0
2017-Nov-19 02:59N 43°24' E 004°60'0 0.0
2017-Nov-19 02:29N 43°24' E 004°60'0 0.0
2017-Nov-19 02:00N 43°24' E 004°60'0 0.0
2017-Nov-19 01:29N 43°24' E 004°60'0 0.0
2017-Nov-19 00:59N 43°24' E 004°60'0 0.0
2017-Nov-19 00:29N 43°24' E 004°60'0 0.0
2017-Nov-19 00:00N 43°24' E 004°60'0 0.0
2017-Nov-18 23:29N 43°24' E 004°60'0 0.0
2017-Nov-18 22:59N 43°24' E 004°60'0 0.0
2017-Nov-18 22:30N 43°24' E 004°60'0 0.0
2017-Nov-18 22:00N 43°24' E 004°60'0 0.0
2017-Nov-18 21:24N 43°24' E 004°60'0 0.0
2017-Nov-18 20:59N 43°24' E 004°60'0 0.0
2017-Nov-18 20:30N 43°24' E 004°60'0 0.0
2017-Nov-18 19:59N 43°24' E 004°60'0 0.0
2017-Nov-18 19:30N 43°24' E 004°60'0 0.0
2017-Nov-18 18:59N 43°24' E 004°60'0 0.0
2017-Nov-18 18:29N 43°24' E 004°60'0 0.0
2017-Nov-18 18:00N 43°24' E 004°60'0 0.0
2017-Nov-18 17:29N 43°24' E 004°60'0 0.0
2017-Nov-18 16:59N 43°24' E 004°60'0 0.0
2017-Nov-18 16:29N 43°24' E 004°60'0 0.0
2017-Nov-18 15:59N 43°24' E 004°60'0 0.0
2017-Nov-18 15:24N 43°24' E 004°60'0 0.0
2017-Nov-18 14:59N 43°24' E 004°60'0 0.0
2017-Nov-18 14:29N 43°24' E 004°60'0 0.0
2017-Nov-18 13:59N 43°24' E 004°60'0 0.0
2017-Nov-18 13:30N 43°24' E 004°60'0 0.9
2017-Nov-18 13:00N 43°24' E 004°59'3 6.9
2017-Nov-18 12:30N 43°20' E 004°59'10 8.9
2017-Nov-18 11:23N 43°11' E 005°04'175 5.0
2017-Nov-17 00:22N 41°12' E 002°09'910.2
2017-Nov-16 23:29N 41°04' E 002°03'610.3
2017-Nov-16 22:55N 40°59' E 001°60'22210.7
2017-Nov-16 02:12N 37°45' W 000°21'211.1
2017-Nov-16 02:00N 37°43' W 000°22'511.0
2017-Nov-16 01:31N 37°39' W 000°26'610.9
2017-Nov-16 01:00N 37°34' W 000°30'510.7
2017-Nov-16 00:30N 37°30' W 000°34'610.8
2017-Nov-15 23:59N 37°27' W 000°40'510.9
2017-Nov-15 23:30N 37°23' W 000°45'611.1
2017-Nov-15 22:57N 37°19' W 000°51'511.0
2017-Nov-15 22:30N 37°16' W 000°55'21511.3
2017-Nov-15 03:28N 36°01' W 005°06'612.9
2017-Nov-15 03:00N 36°00' W 005°13'612.3
2017-Nov-15 02:30N 35°58' W 005°21'611.7
2017-Nov-15 02:00N 35°57' W 005°28'223 9.7
2017-Nov-14 02:58N 37°41' W 009°33'612.1
2017-Nov-14 02:30N 37°47' W 009°32'611.9
2017-Nov-14 02:00N 37°53' W 009°31'611.9
2017-Nov-14 01:30N 37°59' W 009°30'611.7
2017-Nov-14 01:00N 38°04' W 009°29'611.6
2017-Nov-14 00:30N 38°10' W 009°28'611.8
2017-Nov-14 00:00N 38°16' W 009°27'611.8
2017-Nov-13 23:30N 38°22' W 009°26'611.9
2017-Nov-13 23:00N 38°28' W 009°25'611.9
2017-Nov-13 22:30N 38°34' W 009°24'611.6
2017-Nov-13 22:00N 38°39' W 009°20'2 0.1
2017-Nov-13 02:00N 38°40' W 009°19'5 9.6
2017-Nov-13 01:30N 38°40' W 009°25'0 0.3
2017-Nov-13 00:59N 38°40' W 009°25'0 0.1
2017-Nov-13 00:30N 38°40' W 009°25'0 0.0
2017-Nov-12 23:59N 38°40' W 009°25'0 0.0
2017-Nov-12 23:29N 38°40' W 009°25'0 0.1
2017-Nov-12 23:00N 38°40' W 009°25'0 0.1
2017-Nov-12 22:29N 38°40' W 009°25'0 0.0
2017-Nov-12 22:00N 38°40' W 009°25'0 0.0
2017-Nov-12 21:29N 38°40' W 009°25'0 0.0
2017-Nov-12 20:59N 38°40' W 009°25'0 0.0
2017-Nov-12 20:29N 38°40' W 009°25'0 0.0
2017-Nov-12 19:59N 38°40' W 009°25'0 0.0
2017-Nov-12 19:30N 38°40' W 009°25'0 0.0
2017-Nov-12 18:59N 38°40' W 009°25'0 0.0
2017-Nov-12 18:29N 38°40' W 009°25'0 0.0
2017-Nov-12 17:59N 38°40' W 009°25'0 0.1
2017-Nov-12 17:29N 38°40' W 009°25'0 0.1
2017-Nov-12 16:59N 38°40' W 009°25'0 0.0
2017-Nov-12 16:29N 38°40' W 009°25'0 0.0
2017-Nov-12 15:59N 38°40' W 009°25'0 0.0
2017-Nov-12 15:30N 38°40' W 009°25'0 0.0
2017-Nov-12 14:59N 38°40' W 009°25'0 0.0
2017-Nov-12 14:29N 38°40' W 009°25'0 0.0
2017-Nov-12 13:59N 38°40' W 009°25'0 0.0
2017-Nov-12 13:29N 38°40' W 009°25'0 0.0
2017-Nov-12 13:00N 38°40' W 009°25'0 0.0
2017-Nov-12 12:29N 38°40' W 009°25'0 0.0
2017-Nov-12 11:59N 38°40' W 009°25'0 0.0
2017-Nov-12 11:29N 38°40' W 009°25'0 0.1
2017-Nov-12 10:59N 38°40' W 009°25'0 0.1
2017-Nov-12 10:29N 38°40' W 009°25'0 0.0
2017-Nov-12 09:59N 38°40' W 009°25'0 0.0
2017-Nov-12 09:29N 38°40' W 009°25'0 0.1
2017-Nov-12 08:59N 38°40' W 009°25'0 0.0
2017-Nov-12 08:29N 38°40' W 009°25'0 0.0
2017-Nov-12 07:59N 38°40' W 009°25'0 0.0
2017-Nov-12 07:29N 38°40' W 009°25'0 0.0
2017-Nov-12 06:59N 38°40' W 009°25'0 0.1
2017-Nov-12 06:30N 38°40' W 009°25'0 0.0
2017-Nov-12 05:59N 38°40' W 009°25'0 0.0
2017-Nov-12 05:29N 38°40' W 009°25'0 0.0
2017-Nov-12 05:00N 38°40' W 009°25'0 0.1
2017-Nov-12 04:29N 38°40' W 009°25'0 0.0
2017-Nov-12 04:00N 38°40' W 009°25'0 0.0
2017-Nov-12 03:29N 38°40' W 009°25'0 0.0
2017-Nov-12 02:59N 38°40' W 009°25'0 0.0
2017-Nov-12 02:29N 38°40' W 009°25'0 0.0
2017-Nov-12 01:59N 38°40' W 009°25'0 0.0
2017-Nov-12 01:29N 38°40' W 009°25'0 0.0
2017-Nov-12 00:59N 38°40' W 009°25'0 0.0
2017-Nov-12 00:29N 38°40' W 009°25'0 0.0
2017-Nov-11 23:59N 38°40' W 009°25'0 0.0
2017-Nov-11 23:29N 38°40' W 009°25'0 0.0
2017-Nov-11 22:59N 38°40' W 009°25'0 0.0
2017-Nov-11 22:29N 38°40' W 009°25'0 0.0
2017-Nov-11 21:59N 38°40' W 009°25'0 0.1
2017-Nov-11 21:30N 38°40' W 009°25'0 0.0
2017-Nov-11 20:59N 38°40' W 009°25'0 0.0
2017-Nov-11 20:29N 38°40' W 009°25'0 0.1
2017-Nov-11 19:59N 38°40' W 009°25'0 0.0
2017-Nov-11 19:29N 38°40' W 009°25'0 0.1
2017-Nov-11 18:59N 38°40' W 009°25'0 0.0
2017-Nov-11 18:29N 38°40' W 009°25'0 0.0
2017-Nov-11 17:59N 38°40' W 009°25'0 0.0
2017-Nov-11 17:30N 38°40' W 009°25'0 0.0
2017-Nov-11 16:59N 38°40' W 009°25'0 0.0
2017-Nov-11 16:29N 38°40' W 009°25'0 0.0
2017-Nov-11 15:59N 38°40' W 009°25'0 0.0
2017-Nov-11 15:30N 38°40' W 009°25'0 0.0
2017-Nov-11 14:59N 38°40' W 009°25'0 0.0
2017-Nov-11 14:29N 38°40' W 009°25'0 0.0
2017-Nov-11 13:59N 38°40' W 009°25'0 0.0
2017-Nov-11 13:29N 38°40' W 009°25'0 0.0
2017-Nov-11 12:59N 38°40' W 009°25'0 0.1
2017-Nov-11 12:29N 38°40' W 009°25'0 0.0
2017-Nov-11 11:59N 38°40' W 009°25'0 0.0
2017-Nov-11 11:30N 38°40' W 009°25'0 0.0
2017-Nov-11 10:59N 38°40' W 009°25'0 0.0
2017-Nov-11 10:29N 38°40' W 009°25'0 0.1
2017-Nov-11 09:59N 38°40' W 009°25'0 0.0
2017-Nov-11 09:29N 38°40' W 009°25'0 0.0
2017-Nov-11 08:59N 38°40' W 009°25'0 0.0
2017-Nov-11 08:29N 38°40' W 009°25'0 0.1
2017-Nov-11 07:59N 38°40' W 009°25'0 0.0
2017-Nov-11 07:29N 38°40' W 009°25'0 0.0
2017-Nov-11 06:59N 38°40' W 009°25'0 0.0
2017-Nov-11 06:29N 38°40' W 009°25'0 0.0
2017-Nov-11 05:59N 38°40' W 009°25'0 0.0
2017-Nov-11 05:29N 38°40' W 009°25'0 0.1
2017-Nov-11 04:59N 38°40' W 009°25'0 0.0
2017-Nov-11 04:30N 38°40' W 009°25'0 0.1
2017-Nov-11 03:59N 38°40' W 009°25'0 0.2
2017-Nov-11 03:29N 38°40' W 009°25'3 6.1
2017-Nov-11 03:00N 38°37' W 009°26'611.9
2017-Nov-11 02:30N 38°36' W 009°34'611.7
2017-Nov-11 02:00N 38°34' W 009°41'612.0
2017-Nov-11 01:30N 38°33' W 009°48'612.0
2017-Nov-11 01:00N 38°32' W 009°56'611.1
2017-Nov-11 00:30N 38°31' W 010°03'1 1.9
2017-Nov-11 00:00N 38°32' W 010°04'5 8.3
2017-Nov-10 23:23N 38°34' W 010°10'1311.5
2017-Nov-10 22:15N 38°47' W 010°11'611.1
2017-Nov-10 21:44N 38°53' W 010°11'311.3
2017-Nov-10 21:30N 38°55' W 010°10'611.7
2017-Nov-10 20:59N 39°01' W 010°07'511.5
2017-Nov-10 20:30N 39°06' W 010°05'611.2
2017-Nov-10 20:00N 39°11' W 010°02'611.7
2017-Nov-10 19:30N 39°17' W 009°59'11811.5
2017-Nov-10 09:14N 41°04' W 008°55'311.8
2017-Nov-10 09:00N 41°05' W 008°52'611.6
2017-Nov-10 08:30N 41°06' W 008°44'510.3
2017-Nov-10 08:00N 41°11' W 008°42'0 0.7
2017-Nov-10 07:30N 41°11' W 008°43'0 0.0
2017-Nov-10 06:59N 41°11' W 008°43'0 0.0
2017-Nov-10 06:29N 41°11' W 008°43'0 0.0
2017-Nov-10 05:59N 41°11' W 008°43'0 0.0
2017-Nov-10 05:29N 41°11' W 008°43'0 0.0
2017-Nov-10 04:59N 41°11' W 008°43'0 0.0
2017-Nov-10 04:29N 41°11' W 008°43'0 0.0
2017-Nov-10 03:59N 41°11' W 008°43'0 0.0
2017-Nov-10 03:29N 41°11' W 008°43'0 0.0
2017-Nov-10 02:59N 41°11' W 008°43'0 0.0
2017-Nov-10 02:29N 41°11' W 008°43'0 0.0
2017-Nov-10 01:59N 41°11' W 008°43'0 0.0
2017-Nov-10 01:29N 41°11' W 008°43'0 0.0
2017-Nov-10 00:59N 41°11' W 008°43'0 0.0
2017-Nov-10 00:29N 41°11' W 008°43'0 0.0
2017-Nov-09 23:59N 41°11' W 008°43'0 0.0
2017-Nov-09 23:29N 41°11' W 008°43'0 0.0
2017-Nov-09 22:59N 41°11' W 008°43'0 0.0
2017-Nov-09 22:29N 41°11' W 008°43'0 0.0
2017-Nov-09 21:59N 41°11' W 008°43'0 0.0
2017-Nov-09 21:29N 41°11' W 008°43'0 0.0
2017-Nov-09 20:59N 41°11' W 008°43'0 0.0
2017-Nov-09 20:29N 41°11' W 008°43'0 0.0
2017-Nov-09 19:59N 41°11' W 008°43'0 0.0
2017-Nov-09 19:29N 41°11' W 008°43'0 0.0
2017-Nov-09 18:59N 41°11' W 008°43'0 0.0
2017-Nov-09 18:29N 41°11' W 008°43'0 0.0
2017-Nov-09 17:59N 41°11' W 008°43'0 0.0
2017-Nov-09 17:29N 41°11' W 008°43'0 0.0
2017-Nov-09 16:59N 41°11' W 008°43'0 0.0
2017-Nov-09 16:29N 41°11' W 008°43'0 0.0
2017-Nov-09 15:59N 41°11' W 008°43'0 0.0
2017-Nov-09 15:29N 41°11' W 008°43'0 0.0
2017-Nov-09 14:59N 41°11' W 008°43'0 0.0
2017-Nov-09 14:29N 41°11' W 008°43'0 0.0
2017-Nov-09 13:59N 41°11' W 008°43'0 0.0
2017-Nov-09 13:29N 41°11' W 008°43'0 0.0
2017-Nov-09 12:59N 41°11' W 008°43'0 0.0
2017-Nov-09 12:29N 41°11' W 008°43'0 0.0
2017-Nov-09 11:59N 41°11' W 008°43'0 0.0
2017-Nov-09 11:29N 41°11' W 008°43'0 0.0
2017-Nov-09 10:59N 41°11' W 008°43'0 0.0
2017-Nov-09 10:30N 41°11' W 008°43'1 1.7
2017-Nov-09 10:01N 41°10' W 008°42'3 5.4
2017-Nov-09 09:31N 41°09' W 008°46'0 0.4
2017-Nov-09 08:59N 41°09' W 008°45'0 0.0
2017-Nov-09 08:29N 41°09' W 008°45'0 0.0
2017-Nov-09 07:59N 41°09' W 008°45'0 0.0
2017-Nov-09 07:29N 41°09' W 008°45'0 0.0
2017-Nov-09 06:59N 41°09' W 008°45'0 0.0
2017-Nov-09 06:29N 41°09' W 008°45'0 0.0
2017-Nov-09 05:59N 41°09' W 008°45'0 0.0
2017-Nov-09 05:29N 41°09' W 008°45'0 0.0
2017-Nov-09 04:59N 41°09' W 008°45'  
Track history (hours):
 
Tides and Currents Weather Stations Pressure Air Temp Water Temp Dewpoint Dewpoint Depression Visibility Wind Speed Wind Dir Waves Ship Positions

Bomar Pluto

Last reported at 2017-Nov-19 04:57 UTC. Time now 2017-Nov-22 13:14 UTC.
Position N 43°24' E 004°55'.

Length 108 m; draft 6 m.

Type: Ship. MMSI: 249403000.

Date/timePositionNaut miles runAvg speedWind from/ knotsBaromVisibWave heightAir tempDewpointWater temp
2017-Nov-19 04:57N 43°24' E 004°55'3 6.9
2017-Nov-19 04:30N 43°24' E 004°60'0 0.0
2017-Nov-19 04:00N 43°24' E 004°60'0 0.0
2017-Nov-19 03:29N 43°24' E 004°60'0 0.0
2017-Nov-19 02:59N 43°24' E 004°60'0 0.0
2017-Nov-19 02:29N 43°24' E 004°60'0 0.0
2017-Nov-19 02:00N 43°24' E 004°60'0 0.0
2017-Nov-19 01:29N 43°24' E 004°60'0 0.0
2017-Nov-19 00:59N 43°24' E 004°60'0 0.0
2017-Nov-19 00:29N 43°24' E 004°60'0 0.0
2017-Nov-19 00:00N 43°24' E 004°60'0 0.0
2017-Nov-18 23:29N 43°24' E 004°60'0 0.0
2017-Nov-18 22:59N 43°24' E 004°60'0 0.0
2017-Nov-18 22:30N 43°24' E 004°60'0 0.0
2017-Nov-18 22:00N 43°24' E 004°60'0 0.0
2017-Nov-18 21:24N 43°24' E 004°60'0 0.0
2017-Nov-18 20:59N 43°24' E 004°60'0 0.0
2017-Nov-18 20:30N 43°24' E 004°60'0 0.0
2017-Nov-18 19:59N 43°24' E 004°60'0 0.0
2017-Nov-18 19:30N 43°24' E 004°60'0 0.0
2017-Nov-18 18:59N 43°24' E 004°60'0 0.0
2017-Nov-18 18:29N 43°24' E 004°60'0 0.0
2017-Nov-18 18:00N 43°24' E 004°60'0 0.0
2017-Nov-18 17:29N 43°24' E 004°60'0 0.0
2017-Nov-18 16:59N 43°24' E 004°60'0 0.0
2017-Nov-18 16:29N 43°24' E 004°60'0 0.0
2017-Nov-18 15:59N 43°24' E 004°60'0 0.0
2017-Nov-18 15:24N 43°24' E 004°60'0 0.0
2017-Nov-18 14:59N 43°24' E 004°60'0 0.0
2017-Nov-18 14:29N 43°24' E 004°60'0 0.0
2017-Nov-18 13:59N 43°24' E 004°60'0 0.0
2017-Nov-18 13:30N 43°24' E 004°60'0 0.9
2017-Nov-18 13:00N 43°24' E 004°59'3 6.9
2017-Nov-18 12:30N 43°20' E 004°59'10 8.9
2017-Nov-18 11:23N 43°11' E 005°04'175 5.0
2017-Nov-17 00:22N 41°12' E 002°09'910.2
2017-Nov-16 23:29N 41°04' E 002°03'610.3
2017-Nov-16 22:55N 40°59' E 001°60'22210.7
2017-Nov-16 02:12N 37°45' W 000°21'211.1
2017-Nov-16 02:00N 37°43' W 000°22'511.0
2017-Nov-16 01:31N 37°39' W 000°26'610.9
2017-Nov-16 01:00N 37°34' W 000°30'510.7
2017-Nov-16 00:30N 37°30' W 000°34'610.8
2017-Nov-15 23:59N 37°27' W 000°40'510.9
2017-Nov-15 23:30N 37°23' W 000°45'611.1
2017-Nov-15 22:57N 37°19' W 000°51'511.0
2017-Nov-15 22:30N 37°16' W 000°55'21511.3
2017-Nov-15 03:28N 36°01' W 005°06'612.9
2017-Nov-15 03:00N 36°00' W 005°13'612.3
2017-Nov-15 02:30N 35°58' W 005°21'611.7
2017-Nov-15 02:00N 35°57' W 005°28'223 9.7
2017-Nov-14 02:58N 37°41' W 009°33'612.1
2017-Nov-14 02:30N 37°47' W 009°32'611.9
2017-Nov-14 02:00N 37°53' W 009°31'611.9
2017-Nov-14 01:30N 37°59' W 009°30'611.7
2017-Nov-14 01:00N 38°04' W 009°29'611.6
2017-Nov-14 00:30N 38°10' W 009°28'611.8
2017-Nov-14 00:00N 38°16' W 009°27'611.8
2017-Nov-13 23:30N 38°22' W 009°26'611.9
2017-Nov-13 23:00N 38°28' W 009°25'611.9
2017-Nov-13 22:30N 38°34' W 009°24'611.6
2017-Nov-13 22:00N 38°39' W 009°20'2 0.1
2017-Nov-13 02:00N 38°40' W 009°19'5 9.6
2017-Nov-13 01:30N 38°40' W 009°25'0 0.3
2017-Nov-13 00:59N 38°40' W 009°25'0 0.1
2017-Nov-13 00:30N 38°40' W 009°25'0 0.0
2017-Nov-12 23:59N 38°40' W 009°25'0 0.0
2017-Nov-12 23:29N 38°40' W 009°25'0 0.1
2017-Nov-12 23:00N 38°40' W 009°25'0 0.1
2017-Nov-12 22:29N 38°40' W 009°25'0 0.0
2017-Nov-12 22:00N 38°40' W 009°25'0 0.0
2017-Nov-12 21:29N 38°40' W 009°25'0 0.0
2017-Nov-12 20:59N 38°40' W 009°25'0 0.0
2017-Nov-12 20:29N 38°40' W 009°25'0 0.0
2017-Nov-12 19:59N 38°40' W 009°25'0 0.0
2017-Nov-12 19:30N 38°40' W 009°25'0 0.0
2017-Nov-12 18:59N 38°40' W 009°25'0 0.0
2017-Nov-12 18:29N 38°40' W 009°25'0 0.0
2017-Nov-12 17:59N 38°40' W 009°25'0 0.1
2017-Nov-12 17:29N 38°40' W 009°25'0 0.1
2017-Nov-12 16:59N 38°40' W 009°25'0 0.0
2017-Nov-12 16:29N 38°40' W 009°25'0 0.0
2017-Nov-12 15:59N 38°40' W 009°25'0 0.0
2017-Nov-12 15:30N 38°40' W 009°25'0 0.0
2017-Nov-12 14:59N 38°40' W 009°25'0 0.0
2017-Nov-12 14:29N 38°40' W 009°25'0 0.0
2017-Nov-12 13:59N 38°40' W 009°25'0 0.0
2017-Nov-12 13:29N 38°40' W 009°25'0 0.0
2017-Nov-12 13:00N 38°40' W 009°25'0 0.0
2017-Nov-12 12:29N 38°40' W 009°25'0 0.0
2017-Nov-12 11:59N 38°40' W 009°25'0 0.0
2017-Nov-12 11:29N 38°40' W 009°25'0 0.1
2017-Nov-12 10:59N 38°40' W 009°25'0 0.1
2017-Nov-12 10:29N 38°40' W 009°25'0 0.0
2017-Nov-12 09:59N 38°40' W 009°25'0 0.0
2017-Nov-12 09:29N 38°40' W 009°25'0 0.1
2017-Nov-12 08:59N 38°40' W 009°25'0 0.0
2017-Nov-12 08:29N 38°40' W 009°25'0 0.0
2017-Nov-12 07:59N 38°40' W 009°25'0 0.0
2017-Nov-12 07:29N 38°40' W 009°25'0 0.0
2017-Nov-12 06:59N 38°40' W 009°25'0 0.1
2017-Nov-12 06:30N 38°40' W 009°25'0 0.0
2017-Nov-12 05:59N 38°40' W 009°25'0 0.0
2017-Nov-12 05:29N 38°40' W 009°25'0 0.0
2017-Nov-12 05:00N 38°40' W 009°25'0 0.1
2017-Nov-12 04:29N 38°40' W 009°25'0 0.0
2017-Nov-12 04:00N 38°40' W 009°25'0 0.0
2017-Nov-12 03:29N 38°40' W 009°25'0 0.0
2017-Nov-12 02:59N 38°40' W 009°25'0 0.0
2017-Nov-12 02:29N 38°40' W 009°25'0 0.0
2017-Nov-12 01:59N 38°40' W 009°25'0 0.0
2017-Nov-12 01:29N 38°40' W 009°25'0 0.0
2017-Nov-12 00:59N 38°40' W 009°25'0 0.0
2017-Nov-12 00:29N 38°40' W 009°25'0 0.0
2017-Nov-11 23:59N 38°40' W 009°25'0 0.0
2017-Nov-11 23:29N 38°40' W 009°25'0 0.0
2017-Nov-11 22:59N 38°40' W 009°25'0 0.0
2017-Nov-11 22:29N 38°40' W 009°25'0 0.0
2017-Nov-11 21:59N 38°40' W 009°25'0 0.1
2017-Nov-11 21:30N 38°40' W 009°25'0 0.0
2017-Nov-11 20:59N 38°40' W 009°25'0 0.0
2017-Nov-11 20:29N 38°40' W 009°25'0 0.1
2017-Nov-11 19:59N 38°40' W 009°25'0 0.0
2017-Nov-11 19:29N 38°40' W 009°25'0 0.1
2017-Nov-11 18:59N 38°40' W 009°25'0 0.0
2017-Nov-11 18:29N 38°40' W 009°25'0 0.0
2017-Nov-11 17:59N 38°40' W 009°25'0 0.0
2017-Nov-11 17:30N 38°40' W 009°25'0 0.0
2017-Nov-11 16:59N 38°40' W 009°25'0 0.0
2017-Nov-11 16:29N 38°40' W 009°25'0 0.0
2017-Nov-11 15:59N 38°40' W 009°25'0 0.0
2017-Nov-11 15:30N 38°40' W 009°25'0 0.0
2017-Nov-11 14:59N 38°40' W 009°25'0 0.0
2017-Nov-11 14:29N 38°40' W 009°25'0 0.0
2017-Nov-11 13:59N 38°40' W 009°25'0 0.0
2017-Nov-11 13:29N 38°40' W 009°25'0 0.0
2017-Nov-11 12:59N 38°40' W 009°25'0 0.1
2017-Nov-11 12:29N 38°40' W 009°25'0 0.0
2017-Nov-11 11:59N 38°40' W 009°25'0 0.0
2017-Nov-11 11:30N 38°40' W 009°25'0 0.0
2017-Nov-11 10:59N 38°40' W 009°25'0 0.0
2017-Nov-11 10:29N 38°40' W 009°25'0 0.1
2017-Nov-11 09:59N 38°40' W 009°25'0 0.0
2017-Nov-11 09:29N 38°40' W 009°25'0 0.0
2017-Nov-11 08:59N 38°40' W 009°25'0 0.0
2017-Nov-11 08:29N 38°40' W 009°25'0 0.1
2017-Nov-11 07:59N 38°40' W 009°25'0 0.0
2017-Nov-11 07:29N 38°40' W 009°25'0 0.0
2017-Nov-11 06:59N 38°40' W 009°25'0 0.0
2017-Nov-11 06:29N 38°40' W 009°25'0 0.0
2017-Nov-11 05:59N 38°40' W 009°25'0 0.0
2017-Nov-11 05:29N 38°40' W 009°25'0 0.1
2017-Nov-11 04:59N 38°40' W 009°25'0 0.0
2017-Nov-11 04:30N 38°40' W 009°25'0 0.1
2017-Nov-11 03:59N 38°40' W 009°25'0 0.2
2017-Nov-11 03:29N 38°40' W 009°25'3 6.1
2017-Nov-11 03:00N 38°37' W 009°26'611.9
2017-Nov-11 02:30N 38°36' W 009°34'611.7
2017-Nov-11 02:00N 38°34' W 009°41'612.0
2017-Nov-11 01:30N 38°33' W 009°48'612.0
2017-Nov-11 01:00N 38°32' W 009°56'611.1
2017-Nov-11 00:30N 38°31' W 010°03'1 1.9
2017-Nov-11 00:00N 38°32' W 010°04'5 8.3
2017-Nov-10 23:23N 38°34' W 010°10'1311.5
2017-Nov-10 22:15N 38°47' W 010°11'611.1
2017-Nov-10 21:44N 38°53' W 010°11'311.3
2017-Nov-10 21:30N 38°55' W 010°10'611.7
2017-Nov-10 20:59N 39°01' W 010°07'511.5
2017-Nov-10 20:30N 39°06' W 010°05'611.2
2017-Nov-10 20:00N 39°11' W 010°02'611.7
2017-Nov-10 19:30N 39°17' W 009°59'11811.5
2017-Nov-10 09:14N 41°04' W 008°55'311.8
2017-Nov-10 09:00N 41°05' W 008°52'611.6
2017-Nov-10 08:30N 41°06' W 008°44'510.3
2017-Nov-10 08:00N 41°11' W 008°42'0 0.7
2017-Nov-10 07:30N 41°11' W 008°43'0 0.0
2017-Nov-10 06:59N 41°11' W 008°43'0 0.0
2017-Nov-10 06:29N 41°11' W 008°43'0 0.0
2017-Nov-10 05:59N 41°11' W 008°43'0 0.0
2017-Nov-10 05:29N 41°11' W 008°43'0 0.0
2017-Nov-10 04:59N 41°11' W 008°43'0 0.0
2017-Nov-10 04:29N 41°11' W 008°43'0 0.0
2017-Nov-10 03:59N 41°11' W 008°43'0 0.0
2017-Nov-10 03:29N 41°11' W 008°43'0 0.0
2017-Nov-10 02:59N 41°11' W 008°43'0 0.0
2017-Nov-10 02:29N 41°11' W 008°43'0 0.0
2017-Nov-10 01:59N 41°11' W 008°43'0 0.0
2017-Nov-10 01:29N 41°11' W 008°43'0 0.0
2017-Nov-10 00:59N 41°11' W 008°43'0 0.0
2017-Nov-10 00:29N 41°11' W 008°43'0 0.0
2017-Nov-09 23:59N 41°11' W 008°43'0 0.0
2017-Nov-09 23:29N 41°11' W 008°43'0 0.0
2017-Nov-09 22:59N 41°11' W 008°43'0 0.0
2017-Nov-09 22:29N 41°11' W 008°43'0 0.0
2017-Nov-09 21:59N 41°11' W 008°43'0 0.0
2017-Nov-09 21:29N 41°11' W 008°43'0 0.0
2017-Nov-09 20:59N 41°11' W 008°43'0 0.0
2017-Nov-09 20:29N 41°11' W 008°43'0 0.0
2017-Nov-09 19:59N 41°11' W 008°43'0 0.0
2017-Nov-09 19:29N 41°11' W 008°43'0 0.0
2017-Nov-09 18:59N 41°11' W 008°43'0 0.0
2017-Nov-09 18:29N 41°11' W 008°43'0 0.0
2017-Nov-09 17:59N 41°11' W 008°43'0 0.0
2017-Nov-09 17:29N 41°11' W 008°43'0 0.0
2017-Nov-09 16:59N 41°11' W 008°43'0 0.0
2017-Nov-09 16:29N 41°11' W 008°43'0 0.0
2017-Nov-09 15:59N 41°11' W 008°43'0 0.0
2017-Nov-09 15:29N 41°11' W 008°43'0 0.0
2017-Nov-09 14:59N 41°11' W 008°43'0 0.0
2017-Nov-09 14:29N 41°11' W 008°43'0 0.0
2017-Nov-09 13:59N 41°11' W 008°43'0 0.0
2017-Nov-09 13:29N 41°11' W 008°43'0 0.0
2017-Nov-09 12:59N 41°11' W 008°43'0 0.0
2017-Nov-09 12:29N 41°11' W 008°43'0 0.0
2017-Nov-09 11:59N 41°11' W 008°43'0 0.0
2017-Nov-09 11:29N 41°11' W 008°43'0 0.0
2017-Nov-09 10:59N 41°11' W 008°43'0 0.0
2017-Nov-09 10:30N 41°11' W 008°43'1 1.7
2017-Nov-09 10:01N 41°10' W 008°42'3 5.4
2017-Nov-09 09:31N 41°09' W 008°46'0 0.4
2017-Nov-09 08:59N 41°09' W 008°45'0 0.0
2017-Nov-09 08:29N 41°09' W 008°45'0 0.0
2017-Nov-09 07:59N 41°09' W 008°45'0 0.0
2017-Nov-09 07:29N 41°09' W 008°45'0 0.0
2017-Nov-09 06:59N 41°09' W 008°45'0 0.0
2017-Nov-09 06:29N 41°09' W 008°45'0 0.0
2017-Nov-09 05:59N 41°09' W 008°45'0 0.0
2017-Nov-09 05:29N 41°09' W 008°45'0 0.0
2017-Nov-09 04:59N 41°09' W 008°45'  

Dump ship's entire track history